Terminal Aerodrome Forecast
Issued by NWS

Home | Current Version | Previous Version | Text Only | Print | Product List | Glossary On
Versions: 1 2 3 4 5 6 7 8 9 10 11 12 13 14 15
784
FTUS46 KSTO 232320
TAFSCK
TAF
KSCK 232320Z 2400/2424 VRB05KT P6SM SCT250
     FM240600 15007KT P6SM OVC100
     FM241500 14012KT P6SM -RA OVC050
     FM242000 14021G28KT 5SM -RA OVC025=

USA.gov is the U.S. government's official web portal to all federal, state and local government web resources and services.